KPWK/PWK METAR and TAF weather

Enter ICAO airport designator
Station Type Date Time Source
KPWK METAR 2020/11/25 23:00 UTC NOAA

KPWK 252300Z 03004KT 9SM OVC003 08/07 A2972 RMK AO2 T00780072


Station Type Date Time Source
KPWK Decoded METAR 2020/11/25 23:00 UTC NOAA

CHICAGO EXECUTIVE AIRPORT, IL, United States (KPWK) 42-07N 087-54W 203M
Nov 25, 2020 - 06:00 PM EST / 2020.11.25 2300 UTC
Wind: from the NNE (030 degrees) at 5 MPH (4 KT):0
Visibility: 9 mile(s):0
Sky conditions: overcast
Temperature: 46.0 F (7.8 C)
Dew Point: 45.0 F (7.2 C)
Relative Humidity: 95%
Pressure (altimeter): 29.72 in. Hg (1006 hPa)
ob: KPWK 252300Z 03004KT 9SM OVC003 08/07 A2972 RMK AO2 T00780072
cycle: 23

Station Type Date Time Source
KPWK TAF UTC NOAA

Error!

Example: see airport list